sensor_id;sensor_type;location;lat;lon;timestamp;pressure;altitude;pressure_sealevel;temperature;humidity
71424;BME280;59240;51.370;-0.486;2023-12-20T00:03:28;102113.88;;;5.28;100.00
71424;BME280;59240;51.370;-0.486;2023-12-20T00:08:37;102120.13;;;5.36;100.00
71424;BME280;59240;51.370;-0.486;2023-12-20T00:13:34;102108.84;;;5.34;100.00
71424;BME280;59240;51.370;-0.486;2023-12-20T00:18:31;102091.56;;;5.30;100.00
71424;BME280;59240;51.370;-0.486;2023-12-20T00:23:28;102128.22;;;5.55;100.00
71424;BME280;59240;51.370;-0.486;2023-12-20T00:28:25;102104.66;;;5.39;100.00
71424;BME280;59240;51.370;-0.486;2023-12-20T00:33:22;102075.06;;;5.24;100.00
71424;BME280;59240;51.370;-0.486;2023-12-20T00:38:19;102081.28;;;5.33;100.00
71424;BME280;59240;51.370;-0.486;2023-12-20T00:43:16;102097.03;;;5.45;100.00
71424;BME280;59240;51.370;-0.486;2023-12-20T00:48:13;102116.25;;;5.58;100.00
71424;BME280;59240;51.370;-0.486;2023-12-20T00:53:10;102091.97;;;5.50;100.00
71424;BME280;59240;51.370;-0.486;2023-12-20T00:58:07;102103.34;;;5.60;100.00
71424;BME280;59240;51.370;-0.486;2023-12-20T01:03:04;102100.88;;;5.66;100.00
71424;BME280;59240;51.370;-0.486;2023-12-20T01:08:01;102072.09;;;5.47;100.00
71424;BME280;59240;51.370;-0.486;2023-12-20T01:12:59;102098.31;;;5.66;100.00
71424;BME280;59240;51.370;-0.486;2023-12-20T01:17:56;102091.38;;;5.65;100.00
71424;BME280;59240;51.370;-0.486;2023-12-20T01:22:55;102072.28;;;5.57;100.00
71424;BME280;59240;51.370;-0.486;2023-12-20T01:27:52;102079.31;;;5.64;100.00
71424;BME280;59240;51.370;-0.486;2023-12-20T01:32:49;102081.97;;;5.68;100.00
71424;BME280;59240;51.370;-0.486;2023-12-20T01:37:46;102095.75;;;5.69;100.00
71424;BME280;59240;51.370;-0.486;2023-12-20T01:42:43;102095.72;;;5.66;100.00
71424;BME280;59240;51.370;-0.486;2023-12-20T01:47:40;102102.59;;;5.65;100.00
71424;BME280;59240;51.370;-0.486;2023-12-20T01:52:37;102060.97;;;5.52;100.00
71424;BME280;59240;51.370;-0.486;2023-12-20T01:57:34;102088.94;;;5.72;100.00
71424;BME280;59240;51.370;-0.486;2023-12-20T02:02:31;102079.50;;;5.76;100.00
71424;BME280;59240;51.370;-0.486;2023-12-20T02:07:30;102078.78;;;5.83;100.00
71424;BME280;59240;51.370;-0.486;2023-12-20T02:12:27;102071.03;;;5.83;100.00
71424;BME280;59240;51.370;-0.486;2023-12-20T02:17:25;102078.16;;;5.93;100.00
71424;BME280;59240;51.370;-0.486;2023-12-20T02:22:22;102022.59;;;5.73;100.00
71424;BME280;59240;51.370;-0.486;2023-12-20T02:27:19;102032.22;;;5.82;100.00
71424;BME280;59240;51.370;-0.486;2023-12-20T02:32:17;102057.63;;;6.02;100.00
71424;BME280;59240;51.370;-0.486;2023-12-20T02:37:16;102054.09;;;5.97;100.00
71424;BME280;59240;51.370;-0.486;2023-12-20T02:42:13;102043.78;;;6.00;100.00
71424;BME280;59240;51.370;-0.486;2023-12-20T02:47:10;102062.91;;;6.09;100.00
71424;BME280;59240;51.370;-0.486;2023-12-20T02:52:07;102074.94;;;6.07;100.00
71424;BME280;59240;51.370;-0.486;2023-12-20T02:57:06;102065.47;;;6.07;100.00
71424;BME280;59240;51.370;-0.486;2023-12-20T03:02:03;102071.63;;;6.14;100.00
71424;BME280;59240;51.370;-0.486;2023-12-20T03:07:00;102077.75;;;6.19;100.00
71424;BME280;59240;51.370;-0.486;2023-12-20T03:11:57;102060.38;;;6.12;100.00
71424;BME280;59240;51.370;-0.486;2023-12-20T03:16:56;102065.59;;;6.15;100.00
71424;BME280;59240;51.370;-0.486;2023-12-20T03:21:56;102078.53;;;6.15;100.00
71424;BME280;59240;51.370;-0.486;2023-12-20T03:26:53;102062.03;;;6.10;100.00
71424;BME280;59240;51.370;-0.486;2023-12-20T03:31:50;102059.56;;;6.16;100.00
71424;BME280;59240;51.370;-0.486;2023-12-20T03:36:48;102050.59;;;5.95;100.00
71424;BME280;59240;51.370;-0.486;2023-12-20T03:41:45;102083.59;;;6.09;100.00
71424;BME280;59240;51.370;-0.486;2023-12-20T03:46:42;102087.75;;;6.00;100.00
71424;BME280;59240;51.370;-0.486;2023-12-20T03:51:39;102098.97;;;5.99;100.00
71424;BME280;59240;51.370;-0.486;2023-12-20T03:56:36;102098.00;;;5.94;100.00
71424;BME280;59240;51.370;-0.486;2023-12-20T04:01:33;102080.59;;;5.87;100.00
71424;BME280;59240;51.370;-0.486;2023-12-20T04:06:30;102074.56;;;5.88;100.00
71424;BME280;59240;51.370;-0.486;2023-12-20T04:11:27;102055.34;;;5.74;100.00
71424;BME280;59240;51.370;-0.486;2023-12-20T04:16:23;102068.56;;;5.89;100.00
71424;BME280;59240;51.370;-0.486;2023-12-20T04:21:20;102075.44;;;5.89;100.00
71424;BME280;59240;51.370;-0.486;2023-12-20T04:26:17;102073.72;;;5.88;100.00
71424;BME280;59240;51.370;-0.486;2023-12-20T04:31:14;102038.00;;;5.67;100.00
71424;BME280;59240;51.370;-0.486;2023-12-20T04:36:11;102025.78;;;5.60;100.00
71424;BME280;59240;51.370;-0.486;2023-12-20T04:41:08;102062.38;;;5.81;100.00
71424;BME280;59240;51.370;-0.486;2023-12-20T04:46:05;102029.22;;;5.59;100.00
71424;BME280;59240;51.370;-0.486;2023-12-20T04:51:02;102068.38;;;5.79;100.00
71424;BME280;59240;51.370;-0.486;2023-12-20T04:55:59;102064.84;;;5.73;100.00
71424;BME280;59240;51.370;-0.486;2023-12-20T05:00:56;102068.28;;;5.74;100.00
71424;BME280;59240;51.370;-0.486;2023-12-20T05:05:53;102075.19;;;5.75;100.00
71424;BME280;59240;51.370;-0.486;2023-12-20T05:10:52;102061.94;;;5.57;100.00
71424;BME280;59240;51.370;-0.486;2023-12-20T05:15:50;102056.66;;;5.51;100.00
71424;BME280;59240;51.370;-0.486;2023-12-20T05:20:50;102056.69;;;5.54;100.00
71424;BME280;59240;51.370;-0.486;2023-12-20T05:25:47;102069.16;;;5.76;100.00
71424;BME280;59240;51.370;-0.486;2023-12-20T05:30:44;102064.94;;;5.78;100.00
71424;BME280;59240;51.370;-0.486;2023-12-20T05:35:41;102057.31;;;5.87;100.00
71424;BME280;59240;51.370;-0.486;2023-12-20T05:40:38;102050.56;;;5.92;100.00
71424;BME280;59240;51.370;-0.486;2023-12-20T05:45:35;102043.69;;;5.94;100.00
71424;BME280;59240;51.370;-0.486;2023-12-20T05:50:31;101971.50;;;5.60;100.00
71424;BME280;59240;51.370;-0.486;2023-12-20T05:55:28;101995.00;;;5.72;100.00
71424;BME280;59240;51.370;-0.486;2023-12-20T06:00:25;102029.88;;;5.92;100.00
71424;BME280;59240;51.370;-0.486;2023-12-20T06:05:22;102013.47;;;5.92;100.00
71424;BME280;59240;51.370;-0.486;2023-12-20T06:10:19;102022.97;;;5.91;100.00
71424;BME280;59240;51.370;-0.486;2023-12-20T06:15:15;102016.09;;;5.93;100.00
71424;BME280;59240;51.370;-0.486;2023-12-20T06:20:12;101995.03;;;5.75;100.00
71424;BME280;59240;51.370;-0.486;2023-12-20T06:25:09;102009.19;;;5.92;100.00
71424;BME280;59240;51.370;-0.486;2023-12-20T06:30:07;102031.72;;;6.01;100.00
71424;BME280;59240;51.370;-0.486;2023-12-20T06:35:06;102040.34;;;6.01;100.00
71424;BME280;59240;51.370;-0.486;2023-12-20T06:40:03;102027.41;;;6.00;100.00
71424;BME280;59240;51.370;-0.486;2023-12-20T06:45:01;102026.69;;;6.09;100.00
71424;BME280;59240;51.370;-0.486;2023-12-20T06:49:58;102001.47;;;5.97;100.00
71424;BME280;59240;51.370;-0.486;2023-12-20T06:54:55;102011.25;;;6.15;100.00
71424;BME280;59240;51.370;-0.486;2023-12-20T06:59:52;101983.50;;;6.05;100.00
71424;BME280;59240;51.370;-0.486;2023-12-20T07:04:49;102004.34;;;6.14;100.00
71424;BME280;59240;51.370;-0.486;2023-12-20T07:09:46;102005.25;;;6.17;100.00
71424;BME280;59240;51.370;-0.486;2023-12-20T07:14:43;102003.63;;;6.24;100.00
71424;BME280;59240;51.370;-0.486;2023-12-20T07:19:40;102008.00;;;6.28;100.00
71424;BME280;59240;51.370;-0.486;2023-12-20T07:24:37;101999.53;;;6.38;100.00
71424;BME280;59240;51.370;-0.486;2023-12-20T07:29:34;101988.34;;;6.39;100.00
71424;BME280;59240;51.370;-0.486;2023-12-20T07:34:31;101952.94;;;6.37;100.00
71424;BME280;59240;51.370;-0.486;2023-12-20T07:39:32;101919.84;;;6.16;100.00
71424;BME280;59240;51.370;-0.486;2023-12-20T07:44:29;101984.25;;;6.56;100.00
71424;BME280;59240;51.370;-0.486;2023-12-20T07:49:26;101999.00;;;6.61;100.00
71424;BME280;59240;51.370;-0.486;2023-12-20T07:54:23;101964.19;;;6.39;100.00
71424;BME280;59240;51.370;-0.486;2023-12-20T07:59:20;101959.06;;;6.45;100.00
71424;BME280;59240;51.370;-0.486;2023-12-20T08:04:28;102015.72;;;6.84;100.00
71424;BME280;59240;51.370;-0.486;2023-12-20T08:09:25;102003.53;;;6.77;100.00
71424;BME280;59240;51.370;-0.486;2023-12-20T08:14:22;102014.03;;;6.88;100.00
71424;BME280;59240;51.370;-0.486;2023-12-20T08:19:18;102007.94;;;6.84;100.00
71424;BME280;59240;51.370;-0.486;2023-12-20T08:24:16;102050.59;;;7.10;100.00
71424;BME280;59240;51.370;-0.486;2023-12-20T08:29:15;102000.25;;;6.90;100.00
71424;BME280;59240;51.370;-0.486;2023-12-20T08:34:12;102002.06;;;6.97;100.00
71424;BME280;59240;51.370;-0.486;2023-12-20T08:39:12;102053.38;;;7.24;100.00
71424;BME280;59240;51.370;-0.486;2023-12-20T08:44:11;102039.44;;;7.15;100.00
71424;BME280;59240;51.370;-0.486;2023-12-20T08:49:08;102045.59;;;7.26;100.00
71424;BME280;59240;51.370;-0.486;2023-12-20T08:54:06;102017.00;;;7.18;100.00
71424;BME280;59240;51.370;-0.486;2023-12-20T08:59:06;102044.09;;;7.46;100.00
71424;BME280;59240;51.370;-0.486;2023-12-20T09:04:07;102013.06;;;7.52;100.00
71424;BME280;59240;51.370;-0.486;2023-12-20T09:09:04;102008.06;;;7.74;100.00
71424;BME280;59240;51.370;-0.486;2023-12-20T09:14:01;102009.13;;;7.91;100.00
71424;BME280;59240;51.370;-0.486;2023-12-20T09:18:58;101953.66;;;7.78;100.00
71424;BME280;59240;51.370;-0.486;2023-12-20T09:23:55;102004.97;;;8.14;100.00
71424;BME280;59240;51.370;-0.486;2023-12-20T09:28:52;101979.88;;;8.16;100.00
71424;BME280;59240;51.370;-0.486;2023-12-20T09:33:49;101979.22;;;8.42;100.00
71424;BME280;59240;51.370;-0.486;2023-12-20T09:38:48;101995.78;;;8.61;100.00
71424;BME280;59240;51.370;-0.486;2023-12-20T09:43:45;102011.50;;;8.79;100.00
71424;BME280;59240;51.370;-0.486;2023-12-20T09:48:44;102034.13;;;9.00;100.00
71424;BME280;59240;51.370;-0.486;2023-12-20T09:53:43;102026.31;;;9.03;100.00
71424;BME280;59240;51.370;-0.486;2023-12-20T09:58:40;102026.34;;;9.09;100.00
71424;BME280;59240;51.370;-0.486;2023-12-20T10:03:39;102012.50;;;9.16;100.00
71424;BME280;59240;51.370;-0.486;2023-12-20T10:08:38;102028.16;;;9.31;100.00
71424;BME280;59240;51.370;-0.486;2023-12-20T10:13:40;102028.16;;;9.38;100.00
71424;BME280;59240;51.370;-0.486;2023-12-20T10:18:38;102014.31;;;9.39;100.00
71424;BME280;59240;51.370;-0.486;2023-12-20T10:23:36;101990.88;;;9.32;100.00
71424;BME280;59240;51.370;-0.486;2023-12-20T10:28:34;102003.91;;;9.39;100.00
71424;BME280;59240;51.370;-0.486;2023-12-20T10:33:31;102003.91;;;9.42;100.00
71424;BME280;59240;51.370;-0.486;2023-12-20T10:38:34;101967.47;;;9.28;100.00
71424;BME280;59240;51.370;-0.486;2023-12-20T10:43:33;101995.25;;;9.52;100.00
71424;BME280;59240;51.370;-0.486;2023-12-20T10:48:33;101971.84;;;9.46;100.00
71424;BME280;59240;51.370;-0.486;2023-12-20T10:53:31;101962.34;;;9.54;100.00
71424;BME280;59240;51.370;-0.486;2023-12-20T10:58:29;101969.25;;;9.64;100.00
71424;BME280;59240;51.370;-0.486;2023-12-20T11:03:32;101990.97;;;9.86;100.00
71424;BME280;59240;51.370;-0.486;2023-12-20T11:09:33;101981.44;;;9.90;100.00
71424;BME280;59240;51.370;-0.486;2023-12-20T11:14:14;101898.16;;;9.56;100.00
71424;BME280;59240;51.370;-0.486;2023-12-20T11:19:12;101926.78;;;9.77;100.00
71424;BME280;59240;51.370;-0.486;2023-12-20T11:24:10;101856.53;;;9.50;100.00
71424;BME280;59240;51.370;-0.486;2023-12-20T11:34:33;101916.31;;;10.02;100.00
71424;BME280;59240;51.370;-0.486;2023-12-20T11:39:36;101813.16;;;9.58;100.00
71424;BME280;59240;51.370;-0.486;2023-12-20T11:44:38;101832.22;;;9.81;100.00
71424;BME280;59240;51.370;-0.486;2023-12-20T11:49:39;101757.66;;;9.59;100.00
71424;BME280;59240;51.370;-0.486;2023-12-20T11:54:37;101854.66;;;10.28;100.00
71424;BME280;59240;51.370;-0.486;2023-12-20T11:59:34;101819.94;;;10.20;100.00
71424;BME280;59240;51.370;-0.486;2023-12-20T12:04:34;101782.63;;;10.27;100.00
71424;BME280;59240;51.370;-0.486;2023-12-20T12:09:31;101781.75;;;10.30;100.00
71424;BME280;59240;51.370;-0.486;2023-12-20T12:14:30;101825.00;;;10.60;100.00
71424;BME280;59240;51.370;-0.486;2023-12-20T12:19:27;101794.66;;;10.50;100.00
71424;BME280;59240;51.370;-0.486;2023-12-20T12:24:32;101800.75;;;10.52;100.00
71424;BME280;59240;51.370;-0.486;2023-12-20T12:29:34;101733.13;;;10.36;100.00
71424;BME280;59240;51.370;-0.486;2023-12-20T12:34:37;101720.75;;;10.63;100.00
71424;BME280;59240;51.370;-0.486;2023-12-20T12:39:34;101689.56;;;10.57;100.00
71424;BME280;59240;51.370;-0.486;2023-12-20T12:44:54;101691.97;;;10.77;100.00
71424;BME280;59240;51.370;-0.486;2023-12-20T12:49:52;101751.56;;;11.22;100.00
71424;BME280;59240;51.370;-0.486;2023-12-20T12:54:50;101776.56;;;11.43;100.00
71424;BME280;59240;51.370;-0.486;2023-12-20T12:59:47;101724.53;;;11.33;100.00
71424;BME280;59240;51.370;-0.486;2023-12-20T13:04:51;101719.06;;;11.54;100.00
71424;BME280;59240;51.370;-0.486;2023-12-20T13:10:15;101728.53;;;11.63;100.00
71424;BME280;59240;51.370;-0.486;2023-12-20T13:20:54;101680.94;;;11.42;100.00
71424;BME280;59240;51.370;-0.486;2023-12-20T13:26:19;101720.72;;;11.63;100.00
71424;BME280;59240;51.370;-0.486;2023-12-20T13:31:16;101693.13;;;11.39;100.00
71424;BME280;59240;51.370;-0.486;2023-12-20T13:36:13;101697.50;;;11.40;100.00
71424;BME280;59240;51.370;-0.486;2023-12-20T13:41:13;101671.56;;;11.26;100.00
71424;BME280;59240;51.370;-0.486;2023-12-20T13:46:27;101651.53;;;11.25;100.00
71424;BME280;59240;51.370;-0.486;2023-12-20T13:57:02;101570.84;;;11.13;100.00
71424;BME280;59240;51.370;-0.486;2023-12-20T14:02:12;101588.94;;;11.27;100.00
71424;BME280;59240;51.370;-0.486;2023-12-20T14:07:15;101554.38;;;11.09;100.00
71424;BME280;59240;51.370;-0.486;2023-12-20T14:12:20;101558.69;;;11.13;100.00
71424;BME280;59240;51.370;-0.486;2023-12-20T14:22:55;101580.94;;;11.40;100.00
71424;BME280;59240;51.370;-0.486;2023-12-20T14:27:51;101591.22;;;11.52;100.00
71424;BME280;59240;51.370;-0.486;2023-12-20T14:39:08;101625.13;;;11.54;100.00
71424;BME280;59240;51.370;-0.486;2023-12-20T14:44:23;101533.56;;;11.06;100.00
71424;BME280;59240;51.370;-0.486;2023-12-20T14:49:20;101536.09;;;11.11;100.00
71424;BME280;59240;51.370;-0.486;2023-12-20T14:54:43;101537.22;;;10.91;100.00
71424;BME280;59240;51.370;-0.486;2023-12-20T15:00:14;101538.03;;;10.93;100.00
71424;BME280;59240;51.370;-0.486;2023-12-20T15:06:10;101584.63;;;11.24;100.00
71424;BME280;59240;51.370;-0.486;2023-12-20T15:11:31;101527.50;;;11.03;100.00
71424;BME280;59240;51.370;-0.486;2023-12-20T15:22:02;101534.44;;;11.04;100.00
71424;BME280;59240;51.370;-0.486;2023-12-20T15:27:16;101523.03;;;11.11;100.00
71424;BME280;59240;51.370;-0.486;2023-12-20T15:32:46;101491.00;;;11.03;100.00
71424;BME280;59240;51.370;-0.486;2023-12-20T15:37:48;101447.03;;;10.74;100.00
71424;BME280;59240;51.370;-0.486;2023-12-20T15:42:59;101477.28;;;10.88;100.00
71424;BME280;59240;51.370;-0.486;2023-12-20T15:48:05;101480.63;;;10.96;100.00
71424;BME280;59240;51.370;-0.486;2023-12-20T15:53:25;101497.84;;;11.13;100.00
71424;BME280;59240;51.370;-0.486;2023-12-20T15:58:25;101479.75;;;10.98;100.00
71424;BME280;59240;51.370;-0.486;2023-12-20T16:04:42;101448.78;;;10.73;100.00
71424;BME280;59240;51.370;-0.486;2023-12-20T16:09:42;101568.75;;;11.42;100.00
71424;BME280;59240;51.370;-0.486;2023-12-20T16:14:42;101537.56;;;11.33;100.00
71424;BME280;59240;51.370;-0.486;2023-12-20T16:19:52;101525.38;;;11.32;100.00
71424;BME280;59240;51.370;-0.486;2023-12-20T16:25:20;101460.66;;;10.97;100.00
71424;BME280;59240;51.370;-0.486;2023-12-20T16:30:39;101465.84;;;10.97;100.00
71424;BME280;59240;51.370;-0.486;2023-12-20T16:36:00;101460.81;;;10.85;100.00
71424;BME280;59240;51.370;-0.486;2023-12-20T16:41:08;101464.13;;;10.99;100.00
71424;BME280;59240;51.370;-0.486;2023-12-20T16:46:13;101413.13;;;10.78;100.00
71424;BME280;59240;51.370;-0.486;2023-12-20T17:12:56;101432.06;;;10.89;100.00
71424;BME280;59240;51.370;-0.486;2023-12-20T17:18:39;101430.31;;;10.91;100.00
71424;BME280;59240;51.370;-0.486;2023-12-20T17:24:38;101406.13;;;10.80;100.00
71424;BME280;59240;51.370;-0.486;2023-12-20T17:30:17;101432.00;;;10.95;100.00
71424;BME280;59240;51.370;-0.486;2023-12-20T17:54:33;101416.59;;;10.79;100.00
71424;BME280;59240;51.370;-0.486;2023-12-20T18:06:02;101375.16;;;10.56;100.00
71424;BME280;59240;51.370;-0.486;2023-12-20T18:11:12;101461.34;;;11.13;100.00
71424;BME280;59240;51.370;-0.486;2023-12-20T18:16:23;101382.13;;;10.57;100.00
71424;BME280;59240;51.370;-0.486;2023-12-20T18:21:58;101409.66;;;10.76;100.00
71424;BME280;59240;51.370;-0.486;2023-12-20T18:27:11;101445.84;;;11.01;100.00
71424;BME280;59240;51.370;-0.486;2023-12-20T18:32:32;101395.00;;;10.67;100.00
71424;BME280;59240;51.370;-0.486;2023-12-20T18:37:47;101418.19;;;10.87;100.00
71424;BME280;59240;51.370;-0.486;2023-12-20T18:42:46;101449.34;;;11.00;100.00
71424;BME280;59240;51.370;-0.486;2023-12-20T18:47:47;101464.81;;;11.12;100.00
71424;BME280;59240;51.370;-0.486;2023-12-20T18:52:51;101461.41;;;11.07;100.00
71424;BME280;59240;51.370;-0.486;2023-12-20T18:58:14;101426.00;;;10.89;100.00
71424;BME280;59240;51.370;-0.486;2023-12-20T19:03:19;101444.91;;;11.06;100.00
71424;BME280;59240;51.370;-0.486;2023-12-20T19:14:33;101400.72;;;10.95;100.00
71424;BME280;59240;51.370;-0.486;2023-12-20T19:26:06;101453.41;;;11.20;100.00
71424;BME280;59240;51.370;-0.486;2023-12-20T19:31:22;101436.97;;;11.14;100.00
71424;BME280;59240;51.370;-0.486;2023-12-20T19:37:11;101458.53;;;11.27;100.00
71424;BME280;59240;51.370;-0.486;2023-12-20T19:42:51;101383.34;;;10.94;100.00
71424;BME280;59240;51.370;-0.486;2023-12-20T19:48:59;101333.31;;;10.71;100.00
71424;BME280;59240;51.370;-0.486;2023-12-20T19:54:12;101383.97;;;11.13;100.00
71424;BME280;59240;51.370;-0.486;2023-12-20T20:11:30;101403.88;;;11.19;100.00
71424;BME280;59240;51.370;-0.486;2023-12-20T20:16:44;101360.69;;;11.00;100.00
71424;BME280;59240;51.370;-0.486;2023-12-20T20:21:49;101329.53;;;10.90;100.00
71424;BME280;59240;51.370;-0.486;2023-12-20T20:27:14;101391.66;;;11.21;100.00
71424;BME280;59240;51.370;-0.486;2023-12-20T20:32:17;101335.50;;;10.99;100.00
71424;BME280;59240;51.370;-0.486;2023-12-20T20:37:29;101377.78;;;11.17;100.00
71424;BME280;59240;51.370;-0.486;2023-12-20T20:42:26;101268.09;;;10.74;100.00
71424;BME280;59240;51.370;-0.486;2023-12-20T20:47:41;101317.94;;;11.10;100.00
71424;BME280;59240;51.370;-0.486;2023-12-20T20:52:46;101348.25;;;11.17;100.00
71424;BME280;59240;51.370;-0.486;2023-12-20T21:10:31;101231.69;;;10.68;100.00
71424;BME280;59240;51.370;-0.486;2023-12-20T21:15:43;101218.72;;;10.65;100.00
71424;BME280;59240;51.370;-0.486;2023-12-20T21:20:44;101216.09;;;10.66;100.00
71424;BME280;59240;51.370;-0.486;2023-12-20T21:26:08;101220.19;;;10.84;100.00
71424;BME280;59240;51.370;-0.486;2023-12-20T21:31:14;101257.84;;;11.19;100.00
71424;BME280;59240;51.370;-0.486;2023-12-20T21:42:03;101253.31;;;11.29;100.00
71424;BME280;59240;51.370;-0.486;2023-12-20T21:47:04;101273.84;;;11.48;100.00
71424;BME280;59240;51.370;-0.486;2023-12-20T21:52:04;101264.28;;;11.47;100.00
71424;BME280;59240;51.370;-0.486;2023-12-20T21:57:13;101234.75;;;11.45;100.00
71424;BME280;59240;51.370;-0.486;2023-12-20T22:02:41;101162.50;;;11.03;100.00
71424;BME280;59240;51.370;-0.486;2023-12-20T22:08:19;101291.53;;;11.79;100.00
71424;BME280;59240;51.370;-0.486;2023-12-20T22:13:52;101228.66;;;11.46;100.00
71424;BME280;59240;51.370;-0.486;2023-12-20T22:24:50;101295.69;;;11.91;100.00
71424;BME280;59240;51.370;-0.486;2023-12-20T22:29:49;101229.38;;;11.55;100.00
71424;BME280;59240;51.370;-0.486;2023-12-20T22:34:55;101200.06;;;11.40;100.00
71424;BME280;59240;51.370;-0.486;2023-12-20T22:40:15;101146.53;;;11.21;100.00
71424;BME280;59240;51.370;-0.486;2023-12-20T22:45:33;101256.56;;;11.89;100.00
71424;BME280;59240;51.370;-0.486;2023-12-20T23:09:36;101194.25;;;11.71;100.00
71424;BME280;59240;51.370;-0.486;2023-12-20T23:14:37;101188.97;;;11.74;100.00
71424;BME280;59240;51.370;-0.486;2023-12-20T23:19:35;101119.91;;;11.48;100.00
71424;BME280;59240;51.370;-0.486;2023-12-20T23:25:03;101151.84;;;11.61;100.00
71424;BME280;59240;51.370;-0.486;2023-12-20T23:30:19;101142.13;;;11.68;100.00
71424;BME280;59240;51.370;-0.486;2023-12-20T23:35:35;101107.91;;;11.38;100.00
71424;BME280;59240;51.370;-0.486;2023-12-20T23:40:45;101129.53;;;11.46;100.00
71424;BME280;59240;51.370;-0.486;2023-12-20T23:45:43;101179.88;;;11.93;100.00
71424;BME280;59240;51.370;-0.486;2023-12-20T23:50:40;101163.41;;;11.91;100.00
71424;BME280;59240;51.370;-0.486;2023-12-20T23:55:37;101113.28;;;11.74;100.00
